sensor_id;sensor_type;location;lat;lon;timestamp;P1;durP1;ratioP1;P2;durP2;ratioP2
23300;SDS011;11819;51.394;12.340;2022-11-15T00:01:51;29.07;;;15.70;;
23300;SDS011;11819;51.394;12.340;2022-11-15T00:04:35;28.63;;;16.50;;
23300;SDS011;11819;51.394;12.340;2022-11-15T00:07:20;26.67;;;15.80;;
23300;SDS011;11819;51.394;12.340;2022-11-15T00:10:04;27.90;;;15.77;;
23300;SDS011;11819;51.394;12.340;2022-11-15T00:12:49;26.70;;;14.73;;
23300;SDS011;11819;51.394;12.340;2022-11-15T00:15:39;30.40;;;15.70;;
23300;SDS011;11819;51.394;12.340;2022-11-15T00:18:25;25.27;;;14.47;;
23300;SDS011;11819;51.394;12.340;2022-11-15T00:21:10;24.10;;;14.83;;
23300;SDS011;11819;51.394;12.340;2022-11-15T00:23:55;24.57;;;14.17;;
23300;SDS011;11819;51.394;12.340;2022-11-15T00:26:40;24.53;;;15.03;;
23300;SDS011;11819;51.394;12.340;2022-11-15T00:29:24;24.45;;;16.08;;
23300;SDS011;11819;51.394;12.340;2022-11-15T00:32:09;24.77;;;14.20;;
23300;SDS011;11819;51.394;12.340;2022-11-15T00:34:54;24.50;;;15.13;;
23300;SDS011;11819;51.394;12.340;2022-11-15T00:37:38;25.00;;;14.13;;
23300;SDS011;11819;51.394;12.340;2022-11-15T00:40:22;25.43;;;14.37;;
23300;SDS011;11819;51.394;12.340;2022-11-15T00:43:10;23.77;;;15.13;;
23300;SDS011;11819;51.394;12.340;2022-11-15T00:45:54;23.70;;;14.57;;
23300;SDS011;11819;51.394;12.340;2022-11-15T00:48:39;24.98;;;14.32;;
23300;SDS011;11819;51.394;12.340;2022-11-15T00:51:23;24.70;;;14.23;;
23300;SDS011;11819;51.394;12.340;2022-11-15T00:54:07;24.73;;;14.13;;
23300;SDS011;11819;51.394;12.340;2022-11-15T00:56:51;25.65;;;14.02;;
23300;SDS011;11819;51.394;12.340;2022-11-15T00:59:35;23.42;;;13.30;;
23300;SDS011;11819;51.394;12.340;2022-11-15T01:02:19;23.83;;;14.13;;
23300;SDS011;11819;51.394;12.340;2022-11-15T01:05:03;23.23;;;14.47;;
23300;SDS011;11819;51.394;12.340;2022-11-15T01:07:54;25.57;;;14.07;;
23300;SDS011;11819;51.394;12.340;2022-11-15T01:10:39;23.50;;;14.18;;
23300;SDS011;11819;51.394;12.340;2022-11-15T01:13:24;25.83;;;14.68;;
23300;SDS011;11819;51.394;12.340;2022-11-15T01:16:09;25.85;;;13.88;;
23300;SDS011;11819;51.394;12.340;2022-11-15T01:18:55;22.88;;;14.10;;
23300;SDS011;11819;51.394;12.340;2022-11-15T01:21:39;24.37;;;14.80;;
23300;SDS011;11819;51.394;12.340;2022-11-15T01:24:24;23.10;;;13.55;;
23300;SDS011;11819;51.394;12.340;2022-11-15T01:27:08;23.48;;;13.38;;
23300;SDS011;11819;51.394;12.340;2022-11-15T01:29:52;23.77;;;13.18;;
23300;SDS011;11819;51.394;12.340;2022-11-15T01:32:36;21.30;;;12.67;;
23300;SDS011;11819;51.394;12.340;2022-11-15T01:35:21;24.00;;;13.90;;
23300;SDS011;11819;51.394;12.340;2022-11-15T01:38:05;23.60;;;13.57;;
23300;SDS011;11819;51.394;12.340;2022-11-15T01:40:49;21.57;;;12.93;;
23300;SDS011;11819;51.394;12.340;2022-11-15T01:43:34;21.73;;;13.65;;
23300;SDS011;11819;51.394;12.340;2022-11-15T01:49:17;21.92;;;13.88;;
23300;SDS011;11819;51.394;12.340;2022-11-15T01:52:05;22.80;;;13.25;;
23300;SDS011;11819;51.394;12.340;2022-11-15T01:57:46;25.33;;;14.00;;
23300;SDS011;11819;51.394;12.340;2022-11-15T02:00:34;21.95;;;13.23;;
23300;SDS011;11819;51.394;12.340;2022-11-15T02:03:18;23.23;;;13.70;;
23300;SDS011;11819;51.394;12.340;2022-11-15T02:06:05;21.30;;;13.00;;
23300;SDS011;11819;51.394;12.340;2022-11-15T02:08:49;20.30;;;12.57;;
23300;SDS011;11819;51.394;12.340;2022-11-15T02:11:34;21.33;;;12.30;;
23300;SDS011;11819;51.394;12.340;2022-11-15T02:14:19;21.25;;;13.18;;
23300;SDS011;11819;51.394;12.340;2022-11-15T02:17:08;21.83;;;13.37;;
23300;SDS011;11819;51.394;12.340;2022-11-15T02:36:10;19.40;;;11.73;;
23300;SDS011;11819;51.394;12.340;2022-11-15T02:39:06;21.23;;;12.70;;
23300;SDS011;11819;51.394;12.340;2022-11-15T02:44:47;21.83;;;12.53;;
23300;SDS011;11819;51.394;12.340;2022-11-15T02:47:34;21.70;;;12.07;;
23300;SDS011;11819;51.394;12.340;2022-11-15T02:50:27;20.70;;;12.50;;
23300;SDS011;11819;51.394;12.340;2022-11-15T02:53:14;19.53;;;11.93;;
23300;SDS011;11819;51.394;12.340;2022-11-15T02:55:58;21.00;;;12.20;;
23300;SDS011;11819;51.394;12.340;2022-11-15T03:01:50;23.15;;;13.63;;
23300;SDS011;11819;51.394;12.340;2022-11-15T03:07:51;22.93;;;12.73;;
23300;SDS011;11819;51.394;12.340;2022-11-15T03:16:49;22.27;;;12.73;;
23300;SDS011;11819;51.394;12.340;2022-11-15T03:19:44;20.05;;;12.70;;
23300;SDS011;11819;51.394;12.340;2022-11-15T03:22:35;20.63;;;12.20;;
23300;SDS011;11819;51.394;12.340;2022-11-15T03:25:23;23.75;;;13.48;;
23300;SDS011;11819;51.394;12.340;2022-11-15T03:28:09;21.90;;;12.82;;
23300;SDS011;11819;51.394;12.340;2022-11-15T03:30:59;19.23;;;12.23;;
23300;SDS011;11819;51.394;12.340;2022-11-15T03:34:06;19.60;;;12.27;;
23300;SDS011;11819;51.394;12.340;2022-11-15T03:36:54;20.70;;;11.73;;
23300;SDS011;11819;51.394;12.340;2022-11-15T03:39:38;20.45;;;12.02;;
23300;SDS011;11819;51.394;12.340;2022-11-15T03:45:31;20.10;;;11.77;;
23300;SDS011;11819;51.394;12.340;2022-11-15T03:48:27;20.13;;;12.27;;
23300;SDS011;11819;51.394;12.340;2022-11-15T03:51:33;19.30;;;11.60;;
23300;SDS011;11819;51.394;12.340;2022-11-15T03:54:18;22.63;;;12.00;;
23300;SDS011;11819;51.394;12.340;2022-11-15T03:57:02;21.00;;;11.47;;
23300;SDS011;11819;51.394;12.340;2022-11-15T03:59:46;20.65;;;12.05;;
23300;SDS011;11819;51.394;12.340;2022-11-15T04:02:30;20.40;;;11.48;;
23300;SDS011;11819;51.394;12.340;2022-11-15T04:05:15;21.25;;;11.93;;
23300;SDS011;11819;51.394;12.340;2022-11-15T04:07:59;18.63;;;10.82;;
23300;SDS011;11819;51.394;12.340;2022-11-15T04:10:43;22.07;;;11.70;;
23300;SDS011;11819;51.394;12.340;2022-11-15T04:13:27;18.33;;;11.53;;
23300;SDS011;11819;51.394;12.340;2022-11-15T04:16:12;21.42;;;11.88;;
23300;SDS011;11819;51.394;12.340;2022-11-15T04:18:56;19.65;;;11.30;;
23300;SDS011;11819;51.394;12.340;2022-11-15T04:22:00;17.07;;;10.90;;
23300;SDS011;11819;51.394;12.340;2022-11-15T04:25:03;18.88;;;10.50;;
23300;SDS011;11819;51.394;12.340;2022-11-15T04:27:48;19.47;;;11.37;;
23300;SDS011;11819;51.394;12.340;2022-11-15T04:30:32;18.77;;;11.40;;
23300;SDS011;11819;51.394;12.340;2022-11-15T04:33:16;19.95;;;11.90;;
23300;SDS011;11819;51.394;12.340;2022-11-15T04:36:01;19.87;;;10.73;;
23300;SDS011;11819;51.394;12.340;2022-11-15T04:39:03;17.33;;;10.73;;
23300;SDS011;11819;51.394;12.340;2022-11-15T04:41:48;19.58;;;11.48;;
23300;SDS011;11819;51.394;12.340;2022-11-15T04:44:32;20.90;;;11.30;;
23300;SDS011;11819;51.394;12.340;2022-11-15T04:47:16;21.08;;;11.85;;
23300;SDS011;11819;51.394;12.340;2022-11-15T04:50:00;19.17;;;11.30;;
23300;SDS011;11819;51.394;12.340;2022-11-15T04:52:50;18.53;;;11.50;;
23300;SDS011;11819;51.394;12.340;2022-11-15T04:55:35;18.40;;;10.43;;
23300;SDS011;11819;51.394;12.340;2022-11-15T04:58:19;19.70;;;11.18;;
23300;SDS011;11819;51.394;12.340;2022-11-15T05:01:07;18.75;;;11.43;;
23300;SDS011;11819;51.394;12.340;2022-11-15T05:03:55;18.58;;;11.20;;
23300;SDS011;11819;51.394;12.340;2022-11-15T05:06:58;18.23;;;11.65;;
23300;SDS011;11819;51.394;12.340;2022-11-15T05:09:43;18.77;;;11.15;;
23300;SDS011;11819;51.394;12.340;2022-11-15T05:12:27;17.88;;;11.50;;
23300;SDS011;11819;51.394;12.340;2022-11-15T05:15:11;19.25;;;11.20;;
23300;SDS011;11819;51.394;12.340;2022-11-15T05:17:59;20.65;;;11.75;;
23300;SDS011;11819;51.394;12.340;2022-11-15T05:20:43;17.52;;;10.77;;
23300;SDS011;11819;51.394;12.340;2022-11-15T05:23:27;19.63;;;11.02;;
23300;SDS011;11819;51.394;12.340;2022-11-15T05:26:12;23.10;;;11.55;;
23300;SDS011;11819;51.394;12.340;2022-11-15T05:28:58;19.83;;;11.63;;
23300;SDS011;11819;51.394;12.340;2022-11-15T05:31:42;18.20;;;10.25;;
23300;SDS011;11819;51.394;12.340;2022-11-15T05:34:27;20.38;;;10.73;;
23300;SDS011;11819;51.394;12.340;2022-11-15T05:37:11;17.70;;;10.65;;
23300;SDS011;11819;51.394;12.340;2022-11-15T05:39:55;17.95;;;10.65;;
23300;SDS011;11819;51.394;12.340;2022-11-15T05:42:39;21.38;;;11.43;;
23300;SDS011;11819;51.394;12.340;2022-11-15T05:45:25;17.80;;;10.67;;
23300;SDS011;11819;51.394;12.340;2022-11-15T05:48:11;17.85;;;10.55;;
23300;SDS011;11819;51.394;12.340;2022-11-15T05:50:57;18.05;;;11.00;;
23300;SDS011;11819;51.394;12.340;2022-11-15T05:53:42;18.08;;;10.68;;
23300;SDS011;11819;51.394;12.340;2022-11-15T05:56:28;18.80;;;11.23;;
23300;SDS011;11819;51.394;12.340;2022-11-15T05:59:13;17.85;;;10.95;;
23300;SDS011;11819;51.394;12.340;2022-11-15T06:01:57;22.42;;;12.10;;
23300;SDS011;11819;51.394;12.340;2022-11-15T06:04:43;18.75;;;10.60;;
23300;SDS011;11819;51.394;12.340;2022-11-15T06:07:28;20.67;;;11.63;;
23300;SDS011;11819;51.394;12.340;2022-11-15T06:10:13;19.92;;;12.23;;
23300;SDS011;11819;51.394;12.340;2022-11-15T06:13:00;19.15;;;11.45;;
23300;SDS011;11819;51.394;12.340;2022-11-15T06:15:46;19.00;;;11.53;;
23300;SDS011;11819;51.394;12.340;2022-11-15T06:18:33;18.73;;;11.13;;
23300;SDS011;11819;51.394;12.340;2022-11-15T06:21:18;19.52;;;11.18;;
23300;SDS011;11819;51.394;12.340;2022-11-15T06:24:03;19.58;;;11.27;;
23300;SDS011;11819;51.394;12.340;2022-11-15T06:26:48;21.40;;;11.75;;
23300;SDS011;11819;51.394;12.340;2022-11-15T06:29:32;19.20;;;11.33;;
23300;SDS011;11819;51.394;12.340;2022-11-15T06:32:17;19.75;;;11.18;;
23300;SDS011;11819;51.394;12.340;2022-11-15T06:35:01;18.17;;;11.73;;
23300;SDS011;11819;51.394;12.340;2022-11-15T06:37:45;18.58;;;11.10;;
23300;SDS011;11819;51.394;12.340;2022-11-15T06:40:29;19.40;;;11.53;;
23300;SDS011;11819;51.394;12.340;2022-11-15T06:43:13;21.95;;;11.98;;
23300;SDS011;11819;51.394;12.340;2022-11-15T06:45:58;20.10;;;12.18;;
23300;SDS011;11819;51.394;12.340;2022-11-15T06:48:43;17.58;;;10.50;;
23300;SDS011;11819;51.394;12.340;2022-11-15T06:51:27;19.40;;;11.40;;
23300;SDS011;11819;51.394;12.340;2022-11-15T06:54:11;19.90;;;11.80;;
23300;SDS011;11819;51.394;12.340;2022-11-15T06:56:56;19.75;;;11.35;;
23300;SDS011;11819;51.394;12.340;2022-11-15T06:59:40;20.87;;;12.20;;
23300;SDS011;11819;51.394;12.340;2022-11-15T07:02:24;19.33;;;12.00;;
23300;SDS011;11819;51.394;12.340;2022-11-15T07:05:08;17.83;;;11.45;;
23300;SDS011;11819;51.394;12.340;2022-11-15T07:07:53;18.60;;;11.55;;
23300;SDS011;11819;51.394;12.340;2022-11-15T07:10:38;20.73;;;12.63;;
23300;SDS011;11819;51.394;12.340;2022-11-15T07:13:24;19.50;;;11.23;;
23300;SDS011;11819;51.394;12.340;2022-11-15T07:16:11;18.03;;;11.50;;
23300;SDS011;11819;51.394;12.340;2022-11-15T07:18:55;20.30;;;12.73;;
23300;SDS011;11819;51.394;12.340;2022-11-15T07:21:40;18.70;;;11.95;;
23300;SDS011;11819;51.394;12.340;2022-11-15T07:24:24;20.15;;;11.85;;
23300;SDS011;11819;51.394;12.340;2022-11-15T07:27:08;20.83;;;12.40;;
23300;SDS011;11819;51.394;12.340;2022-11-15T07:29:53;18.83;;;11.88;;
23300;SDS011;11819;51.394;12.340;2022-11-15T07:32:37;19.90;;;11.32;;
23300;SDS011;11819;51.394;12.340;2022-11-15T07:35:21;19.08;;;11.52;;
23300;SDS011;11819;51.394;12.340;2022-11-15T07:38:06;18.53;;;11.53;;
23300;SDS011;11819;51.394;12.340;2022-11-15T07:40:55;19.03;;;11.63;;
23300;SDS011;11819;51.394;12.340;2022-11-15T07:43:43;23.13;;;12.60;;
23300;SDS011;11819;51.394;12.340;2022-11-15T07:46:27;22.92;;;12.25;;
23300;SDS011;11819;51.394;12.340;2022-11-15T07:49:12;19.55;;;11.80;;
23300;SDS011;11819;51.394;12.340;2022-11-15T07:51:56;18.90;;;12.50;;
23300;SDS011;11819;51.394;12.340;2022-11-15T07:54:40;21.95;;;11.88;;
23300;SDS011;11819;51.394;12.340;2022-11-15T07:57:25;20.42;;;11.10;;
23300;SDS011;11819;51.394;12.340;2022-11-15T08:00:09;19.15;;;11.45;;
23300;SDS011;11819;51.394;12.340;2022-11-15T08:03:01;21.60;;;13.45;;
23300;SDS011;11819;51.394;12.340;2022-11-15T08:05:53;21.25;;;12.52;;
23300;SDS011;11819;51.394;12.340;2022-11-15T08:08:37;20.85;;;13.05;;
23300;SDS011;11819;51.394;12.340;2022-11-15T08:11:21;19.77;;;11.80;;
23300;SDS011;11819;51.394;12.340;2022-11-15T08:14:06;18.48;;;12.25;;
23300;SDS011;11819;51.394;12.340;2022-11-15T08:16:51;19.50;;;11.13;;
23300;SDS011;11819;51.394;12.340;2022-11-15T08:19:36;20.08;;;11.50;;
23300;SDS011;11819;51.394;12.340;2022-11-15T08:22:20;22.40;;;12.65;;
23300;SDS011;11819;51.394;12.340;2022-11-15T08:25:04;20.00;;;11.32;;
23300;SDS011;11819;51.394;12.340;2022-11-15T08:27:51;18.58;;;11.13;;
23300;SDS011;11819;51.394;12.340;2022-11-15T08:30:40;19.27;;;11.30;;
23300;SDS011;11819;51.394;12.340;2022-11-15T08:33:26;19.73;;;11.18;;
23300;SDS011;11819;51.394;12.340;2022-11-15T08:36:15;16.48;;;10.38;;
23300;SDS011;11819;51.394;12.340;2022-11-15T08:39:00;17.40;;;11.10;;
23300;SDS011;11819;51.394;12.340;2022-11-15T08:41:44;16.58;;;11.15;;
23300;SDS011;11819;51.394;12.340;2022-11-15T08:44:28;18.63;;;10.63;;
23300;SDS011;11819;51.394;12.340;2022-11-15T08:47:12;17.67;;;9.60;;
23300;SDS011;11819;51.394;12.340;2022-11-15T08:52:44;20.25;;;9.85;;
23300;SDS011;11819;51.394;12.340;2022-11-15T08:55:36;15.82;;;9.55;;
23300;SDS011;11819;51.394;12.340;2022-11-15T08:58:21;18.63;;;10.30;;
23300;SDS011;11819;51.394;12.340;2022-11-15T09:01:05;16.00;;;9.50;;
23300;SDS011;11819;51.394;12.340;2022-11-15T09:03:49;18.40;;;9.75;;
23300;SDS011;11819;51.394;12.340;2022-11-15T09:06:35;17.42;;;9.80;;
23300;SDS011;11819;51.394;12.340;2022-11-15T09:09:19;15.27;;;9.73;;
23300;SDS011;11819;51.394;12.340;2022-11-15T09:12:03;14.63;;;8.90;;
23300;SDS011;11819;51.394;12.340;2022-11-15T09:14:48;16.55;;;8.55;;
23300;SDS011;11819;51.394;12.340;2022-11-15T09:17:32;13.15;;;8.82;;
23300;SDS011;11819;51.394;12.340;2022-11-15T09:20:16;14.57;;;8.52;;
23300;SDS011;11819;51.394;12.340;2022-11-15T09:23:01;14.00;;;8.23;;
23300;SDS011;11819;51.394;12.340;2022-11-15T09:25:46;12.40;;;7.57;;
23300;SDS011;11819;51.394;12.340;2022-11-15T09:28:31;12.02;;;7.35;;
23300;SDS011;11819;51.394;12.340;2022-11-15T09:31:16;12.85;;;7.40;;
23300;SDS011;11819;51.394;12.340;2022-11-15T09:34:00;13.45;;;7.40;;
23300;SDS011;11819;51.394;12.340;2022-11-15T09:36:44;11.05;;;7.43;;
23300;SDS011;11819;51.394;12.340;2022-11-15T09:39:28;13.15;;;7.68;;
23300;SDS011;11819;51.394;12.340;2022-11-15T09:45:17;11.07;;;6.68;;
23300;SDS011;11819;51.394;12.340;2022-11-15T09:48:13;12.88;;;7.28;;
23300;SDS011;11819;51.394;12.340;2022-11-15T09:51:03;12.98;;;7.88;;
23300;SDS011;11819;51.394;12.340;2022-11-15T09:56:30;10.63;;;6.20;;
23300;SDS011;11819;51.394;12.340;2022-11-15T10:04:37;9.20;;;6.07;;
23300;SDS011;11819;51.394;12.340;2022-11-15T10:07:10;12.25;;;7.13;;
23300;SDS011;11819;51.394;12.340;2022-11-15T10:09:57;10.85;;;6.55;;
23300;SDS011;11819;51.394;12.340;2022-11-15T10:12:33;10.68;;;6.55;;
23300;SDS011;11819;51.394;12.340;2022-11-15T10:15:03;10.10;;;6.40;;
23300;SDS011;11819;51.394;12.340;2022-11-15T10:20:47;10.55;;;6.18;;
23300;SDS011;11819;51.394;12.340;2022-11-15T10:23:13;10.40;;;5.95;;
23300;SDS011;11819;51.394;12.340;2022-11-15T10:25:42;9.68;;;5.65;;
23300;SDS011;11819;51.394;12.340;2022-11-15T10:28:21;9.60;;;5.65;;
23300;SDS011;11819;51.394;12.340;2022-11-15T10:30:53;9.10;;;5.60;;
23300;SDS011;11819;51.394;12.340;2022-11-15T10:33:40;12.13;;;6.25;;
23300;SDS011;11819;51.394;12.340;2022-11-15T10:41:16;10.65;;;6.65;;
23300;SDS011;11819;51.394;12.340;2022-11-15T10:44:30;10.07;;;6.30;;
23300;SDS011;11819;51.394;12.340;2022-11-15T10:51:54;11.15;;;6.05;;
23300;SDS011;11819;51.394;12.340;2022-11-15T10:54:41;10.18;;;6.13;;
23300;SDS011;11819;51.394;12.340;2022-11-15T10:57:14;9.73;;;5.60;;
23300;SDS011;11819;51.394;12.340;2022-11-15T10:59:44;9.35;;;5.15;;
23300;SDS011;11819;51.394;12.340;2022-11-15T11:02:32;13.18;;;6.28;;
23300;SDS011;11819;51.394;12.340;2022-11-15T11:05:00;8.70;;;5.70;;
23300;SDS011;11819;51.394;12.340;2022-11-15T11:07:28;8.75;;;5.75;;
23300;SDS011;11819;51.394;12.340;2022-11-15T11:12:44;9.70;;;5.28;;
23300;SDS011;11819;51.394;12.340;2022-11-15T11:15:14;9.65;;;5.65;;
23300;SDS011;11819;51.394;12.340;2022-11-15T11:20:48;13.27;;;5.78;;
23300;SDS011;11819;51.394;12.340;2022-11-15T11:29:24;9.52;;;5.30;;
23300;SDS011;11819;51.394;12.340;2022-11-15T11:43:05;8.57;;;5.05;;
23300;SDS011;11819;51.394;12.340;2022-11-15T11:48:03;8.98;;;5.43;;
23300;SDS011;11819;51.394;12.340;2022-11-15T11:50:45;8.55;;;5.00;;
23300;SDS011;11819;51.394;12.340;2022-11-15T11:53:28;9.40;;;4.90;;
23300;SDS011;11819;51.394;12.340;2022-11-15T11:56:07;8.40;;;4.78;;
23300;SDS011;11819;51.394;12.340;2022-11-15T11:58:48;8.07;;;4.53;;
23300;SDS011;11819;51.394;12.340;2022-11-15T12:01:25;8.88;;;4.97;;
23300;SDS011;11819;51.394;12.340;2022-11-15T12:04:01;8.27;;;4.80;;
23300;SDS011;11819;51.394;12.340;2022-11-15T12:14:40;9.15;;;5.35;;
23300;SDS011;11819;51.394;12.340;2022-11-15T12:17:11;10.65;;;5.45;;
23300;SDS011;11819;51.394;12.340;2022-11-15T12:19:37;9.00;;;5.35;;
23300;SDS011;11819;51.394;12.340;2022-11-15T12:22:12;9.65;;;5.57;;
23300;SDS011;11819;51.394;12.340;2022-11-15T12:25:02;9.13;;;5.75;;
23300;SDS011;11819;51.394;12.340;2022-11-15T12:27:37;9.27;;;5.60;;
23300;SDS011;11819;51.394;12.340;2022-11-15T12:30:11;10.82;;;6.55;;
23300;SDS011;11819;51.394;12.340;2022-11-15T12:32:39;10.43;;;6.63;;
23300;SDS011;11819;51.394;12.340;2022-11-15T12:35:25;10.77;;;4.97;;
23300;SDS011;11819;51.394;12.340;2022-11-15T12:38:00;9.32;;;5.40;;
23300;SDS011;11819;51.394;12.340;2022-11-15T12:45:37;9.45;;;5.68;;
23300;SDS011;11819;51.394;12.340;2022-11-15T13:12:10;8.15;;;5.05;;
23300;SDS011;11819;51.394;12.340;2022-11-15T13:14:52;9.80;;;5.28;;
23300;SDS011;11819;51.394;12.340;2022-11-15T13:19:44;7.43;;;4.35;;
23300;SDS011;11819;51.394;12.340;2022-11-15T13:22:12;7.18;;;4.60;;
23300;SDS011;11819;51.394;12.340;2022-11-15T13:24:58;8.48;;;4.15;;
23300;SDS011;11819;51.394;12.340;2022-11-15T13:27:26;5.60;;;3.60;;
23300;SDS011;11819;51.394;12.340;2022-11-15T13:29:52;5.85;;;4.32;;
23300;SDS011;11819;51.394;12.340;2022-11-15T13:32:18;26.77;;;7.00;;
23300;SDS011;11819;51.394;12.340;2022-11-15T13:34:48;11.05;;;4.43;;
23300;SDS011;11819;51.394;12.340;2022-11-15T13:39:46;6.55;;;3.90;;
23300;SDS011;11819;51.394;12.340;2022-11-15T13:42:17;6.72;;;4.40;;
23300;SDS011;11819;51.394;12.340;2022-11-15T13:45:01;7.10;;;3.90;;
23300;SDS011;11819;51.394;12.340;2022-11-15T13:47:29;7.43;;;4.30;;
23300;SDS011;11819;51.394;12.340;2022-11-15T13:49:56;8.32;;;3.97;;
23300;SDS011;11819;51.394;12.340;2022-11-15T13:52:24;7.13;;;4.60;;
23300;SDS011;11819;51.394;12.340;2022-11-15T13:54:57;9.45;;;4.82;;
23300;SDS011;11819;51.394;12.340;2022-11-15T13:57:42;6.45;;;4.10;;
23300;SDS011;11819;51.394;12.340;2022-11-15T14:03:47;8.05;;;4.22;;
23300;SDS011;11819;51.394;12.340;2022-11-15T14:06:07;7.32;;;4.65;;
23300;SDS011;11819;51.394;12.340;2022-11-15T14:08:38;8.48;;;4.95;;
23300;SDS011;11819;51.394;12.340;2022-11-15T14:11:06;6.95;;;4.53;;
23300;SDS011;11819;51.394;12.340;2022-11-15T14:13:33;10.15;;;5.30;;
23300;SDS011;11819;51.394;12.340;2022-11-15T14:18:51;7.50;;;5.15;;
23300;SDS011;11819;51.394;12.340;2022-11-15T14:21:17;8.65;;;4.85;;
23300;SDS011;11819;51.394;12.340;2022-11-15T14:23:44;10.35;;;5.55;;
23300;SDS011;11819;51.394;12.340;2022-11-15T14:26:11;8.25;;;5.10;;
23300;SDS011;11819;51.394;12.340;2022-11-15T14:29:20;7.97;;;4.78;;
23300;SDS011;11819;51.394;12.340;2022-11-15T14:31:48;9.57;;;5.13;;
23300;SDS011;11819;51.394;12.340;2022-11-15T14:34:14;9.07;;;5.25;;
23300;SDS011;11819;51.394;12.340;2022-11-15T14:36:40;7.43;;;4.75;;
23300;SDS011;11819;51.394;12.340;2022-11-15T14:39:06;10.40;;;5.32;;
23300;SDS011;11819;51.394;12.340;2022-11-15T14:41:34;9.40;;;5.75;;
23300;SDS011;11819;51.394;12.340;2022-11-15T14:44:02;11.20;;;6.78;;
23300;SDS011;11819;51.394;12.340;2022-11-15T14:46:29;12.52;;;7.68;;
23300;SDS011;11819;51.394;12.340;2022-11-15T14:48:55;11.68;;;7.22;;
23300;SDS011;11819;51.394;12.340;2022-11-15T14:51:21;13.70;;;9.30;;
23300;SDS011;11819;51.394;12.340;2022-11-15T14:53:47;18.75;;;10.82;;
23300;SDS011;11819;51.394;12.340;2022-11-15T14:56:12;17.35;;;10.32;;
23300;SDS011;11819;51.394;12.340;2022-11-15T14:58:39;13.68;;;9.77;;
23300;SDS011;11819;51.394;12.340;2022-11-15T15:01:24;16.17;;;10.20;;
23300;SDS011;11819;51.394;12.340;2022-11-15T15:03:51;14.20;;;9.20;;
23300;SDS011;11819;51.394;12.340;2022-11-15T15:06:19;15.43;;;9.35;;
23300;SDS011;11819;51.394;12.340;2022-11-15T15:08:45;14.45;;;8.95;;
23300;SDS011;11819;51.394;12.340;2022-11-15T15:11:14;12.10;;;7.63;;
23300;SDS011;11819;51.394;12.340;2022-11-15T15:13:45;10.90;;;7.43;;
23300;SDS011;11819;51.394;12.340;2022-11-15T15:16:10;13.27;;;8.18;;
23300;SDS011;11819;51.394;12.340;2022-11-15T15:18:36;11.10;;;6.80;;
23300;SDS011;11819;51.394;12.340;2022-11-15T15:21:04;12.38;;;6.90;;
23300;SDS011;11819;51.394;12.340;2022-11-15T15:23:45;15.52;;;8.32;;
23300;SDS011;11819;51.394;12.340;2022-11-15T15:26:11;12.95;;;7.80;;
23300;SDS011;11819;51.394;12.340;2022-11-15T15:28:36;11.35;;;7.63;;
23300;SDS011;11819;51.394;12.340;2022-11-15T15:31:04;11.10;;;7.18;;
23300;SDS011;11819;51.394;12.340;2022-11-15T15:33:30;13.27;;;8.32;;
23300;SDS011;11819;51.394;12.340;2022-11-15T15:35:56;12.70;;;7.35;;
23300;SDS011;11819;51.394;12.340;2022-11-15T15:38:22;13.93;;;8.73;;
23300;SDS011;11819;51.394;12.340;2022-11-15T15:40:47;14.68;;;8.65;;
23300;SDS011;11819;51.394;12.340;2022-11-15T15:43:13;16.77;;;9.90;;
23300;SDS011;11819;51.394;12.340;2022-11-15T15:45:39;17.98;;;10.40;;
23300;SDS011;11819;51.394;12.340;2022-11-15T15:48:08;21.27;;;15.02;;
23300;SDS011;11819;51.394;12.340;2022-11-15T15:50:37;22.33;;;15.38;;
23300;SDS011;11819;51.394;12.340;2022-11-15T15:53:03;21.63;;;13.88;;
23300;SDS011;11819;51.394;12.340;2022-11-15T15:55:30;18.88;;;12.70;;
23300;SDS011;11819;51.394;12.340;2022-11-15T15:57:56;18.95;;;12.38;;
23300;SDS011;11819;51.394;12.340;2022-11-15T16:00:23;22.67;;;14.77;;
23300;SDS011;11819;51.394;12.340;2022-11-15T16:02:50;25.48;;;14.93;;
23300;SDS011;11819;51.394;12.340;2022-11-15T16:05:16;24.33;;;15.80;;
23300;SDS011;11819;51.394;12.340;2022-11-15T16:07:45;22.08;;;14.80;;
23300;SDS011;11819;51.394;12.340;2022-11-15T16:10:22;22.42;;;15.35;;
23300;SDS011;11819;51.394;12.340;2022-11-15T16:12:50;23.98;;;15.35;;
23300;SDS011;11819;51.394;12.340;2022-11-15T16:15:16;25.23;;;17.08;;
23300;SDS011;11819;51.394;12.340;2022-11-15T16:17:53;25.10;;;15.35;;
23300;SDS011;11819;51.394;12.340;2022-11-15T16:20:37;23.90;;;16.25;;
23300;SDS011;11819;51.394;12.340;2022-11-15T16:23:11;23.65;;;15.25;;
23300;SDS011;11819;51.394;12.340;2022-11-15T16:25:57;23.63;;;15.73;;
23300;SDS011;11819;51.394;12.340;2022-11-15T16:28:26;24.95;;;16.80;;
23300;SDS011;11819;51.394;12.340;2022-11-15T16:33:26;21.38;;;14.40;;
23300;SDS011;11819;51.394;12.340;2022-11-15T16:35:52;21.98;;;12.93;;
23300;SDS011;11819;51.394;12.340;2022-11-15T16:38:18;17.20;;;11.95;;
23300;SDS011;11819;51.394;12.340;2022-11-15T16:40:44;14.85;;;10.95;;
23300;SDS011;11819;51.394;12.340;2022-11-15T16:43:10;20.02;;;11.95;;
23300;SDS011;11819;51.394;12.340;2022-11-15T16:45:36;18.17;;;11.30;;
23300;SDS011;11819;51.394;12.340;2022-11-15T16:48:03;18.92;;;10.57;;
23300;SDS011;11819;51.394;12.340;2022-11-15T16:50:29;16.08;;;10.15;;
23300;SDS011;11819;51.394;12.340;2022-11-15T16:52:59;15.65;;;10.20;;
23300;SDS011;11819;51.394;12.340;2022-11-15T16:55:26;17.58;;;10.80;;
23300;SDS011;11819;51.394;12.340;2022-11-15T16:57:53;18.38;;;11.52;;
23300;SDS011;11819;51.394;12.340;2022-11-15T17:00:20;19.38;;;10.90;;
23300;SDS011;11819;51.394;12.340;2022-11-15T17:02:47;18.25;;;10.98;;
23300;SDS011;11819;51.394;12.340;2022-11-15T17:05:14;18.35;;;10.70;;
23300;SDS011;11819;51.394;12.340;2022-11-15T17:07:41;22.27;;;12.07;;
23300;SDS011;11819;51.394;12.340;2022-11-15T17:10:08;18.27;;;11.88;;
23300;SDS011;11819;51.394;12.340;2022-11-15T17:12:36;18.45;;;10.55;;
23300;SDS011;11819;51.394;12.340;2022-11-15T17:15:02;17.50;;;11.27;;
23300;SDS011;11819;51.394;12.340;2022-11-15T17:17:29;19.33;;;11.65;;
23300;SDS011;11819;51.394;12.340;2022-11-15T17:19:55;17.30;;;11.88;;
23300;SDS011;11819;51.394;12.340;2022-11-15T17:22:20;17.48;;;12.18;;
23300;SDS011;11819;51.394;12.340;2022-11-15T17:24:47;19.83;;;12.68;;
23300;SDS011;11819;51.394;12.340;2022-11-15T17:27:13;20.40;;;14.70;;
23300;SDS011;11819;51.394;12.340;2022-11-15T17:29:40;20.40;;;13.45;;
23300;SDS011;11819;51.394;12.340;2022-11-15T17:32:06;17.90;;;12.65;;
23300;SDS011;11819;51.394;12.340;2022-11-15T17:34:32;22.15;;;13.43;;
23300;SDS011;11819;51.394;12.340;2022-11-15T17:36:58;22.55;;;14.60;;
23300;SDS011;11819;51.394;12.340;2022-11-15T17:39:24;24.08;;;15.48;;
23300;SDS011;11819;51.394;12.340;2022-11-15T17:41:50;25.55;;;15.60;;
23300;SDS011;11819;51.394;12.340;2022-11-15T17:44:16;24.98;;;15.95;;
23300;SDS011;11819;51.394;12.340;2022-11-15T17:46:42;21.95;;;15.88;;
23300;SDS011;11819;51.394;12.340;2022-11-15T17:49:08;22.10;;;15.02;;
23300;SDS011;11819;51.394;12.340;2022-11-15T17:51:34;26.20;;;16.85;;